sensor_id;sensor_type;location;lat;lon;timestamp;P1;durP1;ratioP1;P2;durP2;ratioP2
53890;SDS011;41337;51.400;-2.342;2022-08-19T00:00:19;0.80;;;0.30;;
53890;SDS011;41337;51.400;-2.342;2022-08-19T00:05:21;0.30;;;0.30;;
53890;SDS011;41337;51.400;-2.342;2022-08-19T00:10:27;0.50;;;0.50;;
53890;SDS011;41337;51.400;-2.342;2022-08-19T00:15:28;0.40;;;0.38;;
53890;SDS011;41337;51.400;-2.342;2022-08-19T00:20:29;0.45;;;0.30;;
53890;SDS011;41337;51.400;-2.342;2022-08-19T00:25:30;3.03;;;0.40;;
53890;SDS011;41337;51.400;-2.342;2022-08-19T00:30:31;0.30;;;0.30;;
53890;SDS011;41337;51.400;-2.342;2022-08-19T00:35:32;0.20;;;0.20;;
53890;SDS011;41337;51.400;-2.342;2022-08-19T00:40:33;1.08;;;0.20;;
53890;SDS011;41337;51.400;-2.342;2022-08-19T00:45:38;0.20;;;0.10;;
53890;SDS011;41337;51.400;-2.342;2022-08-19T00:50:42;2.43;;;0.17;;
53890;SDS011;41337;51.400;-2.342;2022-08-19T00:55:51;0.90;;;0.30;;
53890;SDS011;41337;51.400;-2.342;2022-08-19T01:00:57;0.10;;;0.10;;
53890;SDS011;41337;51.400;-2.342;2022-08-19T01:05:58;0.32;;;0.10;;
53890;SDS011;41337;51.400;-2.342;2022-08-19T01:11:00;1.25;;;0.10;;
53890;SDS011;41337;51.400;-2.342;2022-08-19T01:16:03;1.73;;;0.30;;
53890;SDS011;41337;51.400;-2.342;2022-08-19T01:21:14;7.03;;;0.52;;
53890;SDS011;41337;51.400;-2.342;2022-08-19T01:26:42;1.08;;;0.30;;
53890;SDS011;41337;51.400;-2.342;2022-08-19T01:31:45;1.13;;;0.30;;
53890;SDS011;41337;51.400;-2.342;2022-08-19T01:36:46;1.50;;;0.30;;
53890;SDS011;41337;51.400;-2.342;2022-08-19T01:41:49;0.70;;;0.30;;
53890;SDS011;41337;51.400;-2.342;2022-08-19T01:46:50;1.15;;;0.30;;
53890;SDS011;41337;51.400;-2.342;2022-08-19T01:51:52;5.35;;;0.93;;
53890;SDS011;41337;51.400;-2.342;2022-08-19T01:57:08;1.30;;;0.30;;
53890;SDS011;41337;51.400;-2.342;2022-08-19T02:02:15;2.45;;;0.47;;
53890;SDS011;41337;51.400;-2.342;2022-08-19T02:07:18;2.80;;;0.77;;
53890;SDS011;41337;51.400;-2.342;2022-08-19T02:12:27;2.33;;;0.40;;
53890;SDS011;41337;51.400;-2.342;2022-08-19T02:17:28;3.85;;;0.55;;
53890;SDS011;41337;51.400;-2.342;2022-08-19T02:22:29;4.18;;;0.70;;
53890;SDS011;41337;51.400;-2.342;2022-08-19T02:27:30;6.68;;;0.80;;
53890;SDS011;41337;51.400;-2.342;2022-08-19T02:32:31;4.30;;;0.82;;
53890;SDS011;41337;51.400;-2.342;2022-08-19T02:37:36;1.15;;;0.60;;
53890;SDS011;41337;51.400;-2.342;2022-08-19T02:42:55;3.45;;;0.75;;
53890;SDS011;41337;51.400;-2.342;2022-08-19T02:47:56;2.75;;;1.10;;
53890;SDS011;41337;51.400;-2.342;2022-08-19T02:52:57;5.35;;;1.25;;
53890;SDS011;41337;51.400;-2.342;2022-08-19T02:57:58;4.80;;;1.02;;
53890;SDS011;41337;51.400;-2.342;2022-08-19T03:03:00;5.53;;;1.00;;
53890;SDS011;41337;51.400;-2.342;2022-08-19T03:08:00;4.28;;;1.02;;
53890;SDS011;41337;51.400;-2.342;2022-08-19T03:13:02;2.17;;;1.45;;
53890;SDS011;41337;51.400;-2.342;2022-08-19T03:18:08;2.40;;;1.17;;
53890;SDS011;41337;51.400;-2.342;2022-08-19T03:23:10;7.30;;;1.20;;
53890;SDS011;41337;51.400;-2.342;2022-08-19T03:28:21;9.98;;;1.58;;
53890;SDS011;41337;51.400;-2.342;2022-08-19T03:33:29;25.08;;;2.15;;
53890;SDS011;41337;51.400;-2.342;2022-08-19T03:38:30;9.00;;;2.00;;
53890;SDS011;41337;51.400;-2.342;2022-08-19T03:43:39;9.55;;;2.22;;
53890;SDS011;41337;51.400;-2.342;2022-08-19T03:48:40;7.32;;;2.47;;
53890;SDS011;41337;51.400;-2.342;2022-08-19T03:53:46;6.93;;;2.75;;
53890;SDS011;41337;51.400;-2.342;2022-08-19T03:58:48;9.50;;;2.25;;
53890;SDS011;41337;51.400;-2.342;2022-08-19T04:03:49;5.30;;;2.28;;
53890;SDS011;41337;51.400;-2.342;2022-08-19T04:08:50;5.07;;;1.63;;
53890;SDS011;41337;51.400;-2.342;2022-08-19T04:14:00;12.93;;;2.42;;
53890;SDS011;41337;51.400;-2.342;2022-08-19T04:19:02;12.07;;;2.30;;
53890;SDS011;41337;51.400;-2.342;2022-08-19T04:24:10;15.35;;;2.50;;
53890;SDS011;41337;51.400;-2.342;2022-08-19T04:29:20;10.07;;;2.60;;
53890;SDS011;41337;51.400;-2.342;2022-08-19T04:34:28;20.80;;;3.10;;
53890;SDS011;41337;51.400;-2.342;2022-08-19T04:39:30;12.02;;;2.65;;
53890;SDS011;41337;51.400;-2.342;2022-08-19T04:44:49;12.30;;;2.15;;
53890;SDS011;41337;51.400;-2.342;2022-08-19T04:49:51;8.82;;;2.40;;
53890;SDS011;41337;51.400;-2.342;2022-08-19T04:54:55;13.38;;;2.97;;
53890;SDS011;41337;51.400;-2.342;2022-08-19T04:59:56;7.63;;;2.85;;
53890;SDS011;41337;51.400;-2.342;2022-08-19T05:04:57;11.65;;;2.50;;
53890;SDS011;41337;51.400;-2.342;2022-08-19T05:10:01;18.77;;;3.30;;
53890;SDS011;41337;51.400;-2.342;2022-08-19T05:15:06;13.10;;;2.85;;
53890;SDS011;41337;51.400;-2.342;2022-08-19T05:20:08;18.98;;;3.20;;
53890;SDS011;41337;51.400;-2.342;2022-08-19T05:25:29;8.63;;;3.08;;
53890;SDS011;41337;51.400;-2.342;2022-08-19T05:30:29;14.68;;;3.00;;
53890;SDS011;41337;51.400;-2.342;2022-08-19T05:35:30;9.60;;;3.20;;
53890;SDS011;41337;51.400;-2.342;2022-08-19T05:40:31;13.20;;;3.40;;
53890;SDS011;41337;51.400;-2.342;2022-08-19T05:45:39;16.13;;;3.85;;
53890;SDS011;41337;51.400;-2.342;2022-08-19T05:50:41;15.35;;;4.25;;
53890;SDS011;41337;51.400;-2.342;2022-08-19T05:55:48;17.65;;;3.42;;
53890;SDS011;41337;51.400;-2.342;2022-08-19T06:00:49;20.27;;;3.92;;
53890;SDS011;41337;51.400;-2.342;2022-08-19T06:05:52;16.23;;;3.75;;
53890;SDS011;41337;51.400;-2.342;2022-08-19T06:10:58;19.73;;;4.53;;
53890;SDS011;41337;51.400;-2.342;2022-08-19T06:16:19;20.35;;;5.60;;
53890;SDS011;41337;51.400;-2.342;2022-08-19T06:21:23;20.08;;;4.25;;
53890;SDS011;41337;51.400;-2.342;2022-08-19T06:26:25;17.60;;;4.45;;
53890;SDS011;41337;51.400;-2.342;2022-08-19T06:31:28;12.32;;;3.65;;
53890;SDS011;41337;51.400;-2.342;2022-08-19T06:36:31;13.88;;;4.25;;
53890;SDS011;41337;51.400;-2.342;2022-08-19T06:41:35;9.57;;;3.67;;
53890;SDS011;41337;51.400;-2.342;2022-08-19T06:46:44;10.70;;;3.45;;
53890;SDS011;41337;51.400;-2.342;2022-08-19T06:51:46;12.27;;;3.67;;
53890;SDS011;41337;51.400;-2.342;2022-08-19T06:56:48;9.60;;;3.30;;
53890;SDS011;41337;51.400;-2.342;2022-08-19T07:01:50;13.88;;;4.07;;
53890;SDS011;41337;51.400;-2.342;2022-08-19T07:06:59;11.98;;;3.53;;
53890;SDS011;41337;51.400;-2.342;2022-08-19T07:12:09;13.07;;;3.45;;
53890;SDS011;41337;51.400;-2.342;2022-08-19T07:17:17;12.98;;;3.63;;
53890;SDS011;41337;51.400;-2.342;2022-08-19T07:22:18;9.52;;;3.08;;
53890;SDS011;41337;51.400;-2.342;2022-08-19T07:27:21;10.95;;;2.72;;
53890;SDS011;41337;51.400;-2.342;2022-08-19T07:32:25;8.93;;;2.10;;
53890;SDS011;41337;51.400;-2.342;2022-08-19T07:37:30;7.13;;;1.95;;
53890;SDS011;41337;51.400;-2.342;2022-08-19T07:42:37;7.90;;;2.30;;
53890;SDS011;41337;51.400;-2.342;2022-08-19T07:47:37;11.43;;;2.90;;
53890;SDS011;41337;51.400;-2.342;2022-08-19T07:52:43;15.48;;;2.78;;
53890;SDS011;41337;51.400;-2.342;2022-08-19T07:57:44;8.55;;;2.40;;
53890;SDS011;41337;51.400;-2.342;2022-08-19T08:02:45;8.85;;;2.65;;
53890;SDS011;41337;51.400;-2.342;2022-08-19T08:07:45;9.02;;;1.88;;
53890;SDS011;41337;51.400;-2.342;2022-08-19T08:13:05;9.20;;;1.67;;
53890;SDS011;41337;51.400;-2.342;2022-08-19T08:18:06;8.30;;;2.15;;
53890;SDS011;41337;51.400;-2.342;2022-08-19T08:23:07;10.18;;;1.38;;
53890;SDS011;41337;51.400;-2.342;2022-08-19T08:28:25;5.90;;;1.73;;
53890;SDS011;41337;51.400;-2.342;2022-08-19T08:33:27;9.27;;;2.00;;
53890;SDS011;41337;51.400;-2.342;2022-08-19T08:38:34;7.00;;;1.70;;
53890;SDS011;41337;51.400;-2.342;2022-08-19T08:43:37;12.23;;;1.85;;
53890;SDS011;41337;51.400;-2.342;2022-08-19T08:53:56;7.90;;;1.40;;
53890;SDS011;41337;51.400;-2.342;2022-08-19T08:59:16;6.95;;;1.50;;
53890;SDS011;41337;51.400;-2.342;2022-08-19T09:04:31;6.60;;;2.25;;
53890;SDS011;41337;51.400;-2.342;2022-08-19T09:09:37;9.85;;;2.30;;
53890;SDS011;41337;51.400;-2.342;2022-08-19T09:15:23;7.40;;;1.70;;
53890;SDS011;41337;51.400;-2.342;2022-08-19T09:20:20;7.13;;;2.10;;
53890;SDS011;41337;51.400;-2.342;2022-08-19T09:25:23;7.55;;;1.50;;
53890;SDS011;41337;51.400;-2.342;2022-08-19T09:30:28;6.15;;;1.60;;
53890;SDS011;41337;51.400;-2.342;2022-08-19T09:35:31;7.32;;;1.20;;
53890;SDS011;41337;51.400;-2.342;2022-08-19T09:40:39;9.40;;;1.55;;
53890;SDS011;41337;51.400;-2.342;2022-08-19T09:45:39;13.88;;;1.70;;
53890;SDS011;41337;51.400;-2.342;2022-08-19T09:50:40;9.85;;;1.60;;
53890;SDS011;41337;51.400;-2.342;2022-08-19T09:55:42;6.60;;;1.35;;
53890;SDS011;41337;51.400;-2.342;2022-08-19T10:00:43;8.52;;;1.50;;
53890;SDS011;41337;51.400;-2.342;2022-08-19T10:05:45;8.00;;;2.20;;
53890;SDS011;41337;51.400;-2.342;2022-08-19T10:10:50;9.25;;;1.80;;
53890;SDS011;41337;51.400;-2.342;2022-08-19T10:15:51;10.15;;;1.83;;
53890;SDS011;41337;51.400;-2.342;2022-08-19T10:21:01;8.35;;;1.55;;
53890;SDS011;41337;51.400;-2.342;2022-08-19T10:26:19;9.48;;;1.33;;
53890;SDS011;41337;51.400;-2.342;2022-08-19T10:31:24;11.47;;;1.33;;
53890;SDS011;41337;51.400;-2.342;2022-08-19T10:36:34;8.23;;;1.63;;
53890;SDS011;41337;51.400;-2.342;2022-08-19T10:41:40;6.10;;;1.73;;
53890;SDS011;41337;51.400;-2.342;2022-08-19T10:46:49;5.45;;;1.50;;
53890;SDS011;41337;51.400;-2.342;2022-08-19T10:51:50;10.70;;;2.07;;
53890;SDS011;41337;51.400;-2.342;2022-08-19T10:57:09;9.02;;;1.90;;
53890;SDS011;41337;51.400;-2.342;2022-08-19T11:02:10;11.15;;;1.63;;
53890;SDS011;41337;51.400;-2.342;2022-08-19T11:07:21;5.10;;;1.55;;
53890;SDS011;41337;51.400;-2.342;2022-08-19T11:12:28;8.88;;;1.77;;
53890;SDS011;41337;51.400;-2.342;2022-08-19T11:17:29;10.93;;;2.30;;
53890;SDS011;41337;51.400;-2.342;2022-08-19T11:22:31;9.60;;;1.60;;
53890;SDS011;41337;51.400;-2.342;2022-08-19T11:27:32;8.90;;;1.50;;
53890;SDS011;41337;51.400;-2.342;2022-08-19T11:32:42;11.15;;;1.88;;
53890;SDS011;41337;51.400;-2.342;2022-08-19T11:37:47;7.00;;;2.13;;
53890;SDS011;41337;51.400;-2.342;2022-08-19T11:42:48;8.55;;;1.58;;
53890;SDS011;41337;51.400;-2.342;2022-08-19T11:47:58;6.18;;;1.40;;
53890;SDS011;41337;51.400;-2.342;2022-08-19T11:52:59;7.88;;;2.20;;
53890;SDS011;41337;51.400;-2.342;2022-08-19T11:58:00;10.88;;;2.38;;
53890;SDS011;41337;51.400;-2.342;2022-08-19T12:03:01;7.10;;;2.03;;
53890;SDS011;41337;51.400;-2.342;2022-08-19T12:08:02;6.80;;;1.73;;
53890;SDS011;41337;51.400;-2.342;2022-08-19T12:13:04;5.70;;;1.60;;
53890;SDS011;41337;51.400;-2.342;2022-08-19T12:18:06;8.38;;;1.48;;
53890;SDS011;41337;51.400;-2.342;2022-08-19T12:23:11;10.00;;;2.10;;
53890;SDS011;41337;51.400;-2.342;2022-08-19T12:28:12;6.20;;;1.55;;
53890;SDS011;41337;51.400;-2.342;2022-08-19T12:33:13;9.77;;;1.90;;
53890;SDS011;41337;51.400;-2.342;2022-08-19T12:38:14;5.63;;;1.25;;
53890;SDS011;41337;51.400;-2.342;2022-08-19T12:43:24;9.40;;;1.70;;
53890;SDS011;41337;51.400;-2.342;2022-08-19T12:48:27;10.23;;;1.70;;
53890;SDS011;41337;51.400;-2.342;2022-08-19T12:53:32;7.85;;;1.73;;
53890;SDS011;41337;51.400;-2.342;2022-08-19T12:58:33;5.90;;;1.48;;
53890;SDS011;41337;51.400;-2.342;2022-08-19T13:03:35;5.95;;;1.33;;
53890;SDS011;41337;51.400;-2.342;2022-08-19T13:08:38;10.30;;;1.55;;
53890;SDS011;41337;51.400;-2.342;2022-08-19T13:13:42;8.32;;;1.50;;
53890;SDS011;41337;51.400;-2.342;2022-08-19T13:18:45;4.53;;;1.25;;
53890;SDS011;41337;51.400;-2.342;2022-08-19T13:23:52;7.70;;;1.90;;
53890;SDS011;41337;51.400;-2.342;2022-08-19T13:28:54;4.60;;;1.33;;
53890;SDS011;41337;51.400;-2.342;2022-08-19T13:34:13;6.47;;;2.13;;
53890;SDS011;41337;51.400;-2.342;2022-08-19T13:39:19;8.07;;;2.00;;
53890;SDS011;41337;51.400;-2.342;2022-08-19T13:44:23;9.55;;;1.73;;
53890;SDS011;41337;51.400;-2.342;2022-08-19T13:49:23;7.00;;;1.48;;
53890;SDS011;41337;51.400;-2.342;2022-08-19T13:54:24;4.70;;;1.55;;
53890;SDS011;41337;51.400;-2.342;2022-08-19T13:59:30;7.60;;;1.60;;
53890;SDS011;41337;51.400;-2.342;2022-08-19T14:04:31;6.68;;;1.30;;
53890;SDS011;41337;51.400;-2.342;2022-08-19T14:09:31;5.90;;;1.40;;
53890;SDS011;41337;51.400;-2.342;2022-08-19T14:14:35;3.47;;;0.98;;
53890;SDS011;41337;51.400;-2.342;2022-08-19T14:19:42;7.60;;;1.17;;
53890;SDS011;41337;51.400;-2.342;2022-08-19T14:24:43;3.30;;;1.08;;
53890;SDS011;41337;51.400;-2.342;2022-08-19T14:29:44;5.38;;;1.13;;
53890;SDS011;41337;51.400;-2.342;2022-08-19T14:34:45;5.70;;;1.15;;
53890;SDS011;41337;51.400;-2.342;2022-08-19T14:44:56;5.05;;;1.17;;
53890;SDS011;41337;51.400;-2.342;2022-08-19T14:49:59;8.10;;;1.58;;
53890;SDS011;41337;51.400;-2.342;2022-08-19T14:55:03;3.53;;;1.27;;
53890;SDS011;41337;51.400;-2.342;2022-08-19T15:00:05;2.92;;;0.85;;
53890;SDS011;41337;51.400;-2.342;2022-08-19T15:05:07;2.17;;;0.60;;
53890;SDS011;41337;51.400;-2.342;2022-08-19T15:10:14;2.22;;;0.68;;
53890;SDS011;41337;51.400;-2.342;2022-08-19T15:15:16;2.92;;;0.70;;
53890;SDS011;41337;51.400;-2.342;2022-08-19T15:25:24;4.75;;;0.70;;
53890;SDS011;41337;51.400;-2.342;2022-08-19T15:30:26;2.50;;;0.68;;
53890;SDS011;41337;51.400;-2.342;2022-08-19T15:35:28;1.65;;;0.55;;
53890;SDS011;41337;51.400;-2.342;2022-08-19T15:40:32;2.75;;;0.50;;
53890;SDS011;41337;51.400;-2.342;2022-08-19T15:45:33;3.88;;;0.68;;
53890;SDS011;41337;51.400;-2.342;2022-08-19T15:50:34;3.80;;;0.80;;
53890;SDS011;41337;51.400;-2.342;2022-08-19T15:55:36;1.20;;;0.50;;
